createdAt,value
2018-05-04T00:00:00.200Z,20.94
2018-05-04T00:02:26.745Z,20.98
2018-05-04T00:04:53.341Z,21.07
2018-05-04T00:07:19.822Z,21.10
2018-05-04T00:09:46.299Z,20.99
2018-05-04T00:12:12.840Z,21.05
2018-05-04T00:14:39.352Z,20.97
2018-05-04T00:17:05.952Z,21.05
2018-05-04T00:19:32.480Z,21.10
2018-05-04T00:21:58.953Z,21.16
2018-05-04T00:24:25.465Z,21.15
2018-05-04T00:26:52.005Z,21.20
2018-05-04T00:29:18.489Z,21.17
2018-05-04T00:31:45.016Z,21.19
2018-05-04T00:34:11.458Z,21.16
2018-05-04T00:36:37.920Z,21.12
2018-05-04T00:39:04.505Z,21.14
2018-05-04T00:41:31.113Z,21.00
2018-05-04T00:43:57.516Z,21.05
2018-05-04T00:46:24.033Z,21.04
2018-05-04T00:48:50.649Z,20.97
2018-05-04T00:51:17.140Z,20.99
2018-05-04T00:53:55.796Z,20.91
2018-05-04T00:56:22.417Z,20.88
2018-05-04T00:58:49.037Z,20.77
2018-05-04T01:01:15.537Z,20.82
2018-05-04T01:03:42.041Z,20.77
2018-05-04T01:06:08.548Z,20.76
2018-05-04T01:08:34.967Z,20.71
2018-05-04T01:11:01.606Z,20.74
2018-05-04T01:13:27.992Z,20.63
2018-05-04T01:15:54.474Z,20.63
2018-05-04T01:18:20.927Z,20.73
2018-05-04T01:20:47.443Z,20.66
2018-05-04T01:23:13.936Z,20.72
2018-05-04T01:25:40.472Z,20.68
2018-05-04T01:28:07.053Z,20.68
2018-05-04T01:30:33.485Z,20.64
2018-05-04T01:32:59.936Z,20.55
2018-05-04T01:35:26.389Z,20.68
2018-05-04T01:37:53.050Z,20.61
2018-05-04T01:40:19.560Z,20.68
2018-05-04T01:42:46.044Z,20.59
2018-05-04T01:45:12.559Z,20.55
2018-05-04T01:47:39.132Z,20.52
2018-05-04T01:50:05.701Z,20.51
2018-05-04T01:52:32.173Z,20.48
2018-05-04T01:54:58.816Z,20.44
2018-05-04T01:57:25.221Z,20.39
2018-05-04T01:59:51.608Z,20.43
2018-05-04T02:02:18.224Z,20.47
2018-05-04T02:04:44.743Z,20.33
2018-05-04T02:07:11.251Z,20.35
2018-05-04T02:09:37.788Z,20.35
2018-05-04T02:12:04.347Z,20.29
2018-05-04T02:14:30.852Z,20.31
2018-05-04T02:16:57.362Z,20.30
2018-05-04T02:19:23.848Z,20.22
2018-05-04T02:21:50.336Z,20.29
2018-05-04T02:24:16.791Z,20.28
2018-05-04T02:26:43.335Z,20.20
2018-05-04T02:29:09.909Z,20.29
2018-05-04T02:31:36.261Z,20.29
2018-05-04T02:34:02.783Z,20.29
2018-05-04T02:36:29.359Z,20.32
2018-05-04T02:38:55.875Z,20.23
2018-05-04T02:41:22.332Z,20.21
2018-05-04T02:43:48.765Z,20.29
2018-05-04T02:46:15.293Z,20.32
2018-05-04T02:48:41.838Z,20.30
2018-05-04T02:51:08.364Z,20.31
2018-05-04T02:53:34.874Z,20.34
2018-05-04T02:56:01.441Z,20.36
2018-05-04T02:58:27.889Z,20.32
2018-05-04T03:00:54.356Z,20.28
2018-05-04T03:03:20.947Z,20.29
2018-05-04T03:05:47.398Z,20.34
2018-05-04T03:08:13.875Z,20.35
2018-05-04T03:10:40.455Z,20.34
2018-05-04T03:13:07.004Z,20.38
2018-05-04T03:15:33.453Z,20.37
2018-05-04T03:17:59.997Z,20.35
2018-05-04T03:20:26.595Z,20.40
2018-05-04T03:22:53.064Z,20.38
2018-05-04T03:25:19.585Z,20.24
2018-05-04T03:27:46.226Z,20.10
2018-05-04T03:30:12.733Z,20.11
2018-05-04T03:32:39.328Z,20.06
2018-05-04T03:35:05.757Z,19.92
2018-05-04T03:37:32.220Z,19.97
2018-05-04T03:39:58.789Z,20.03
2018-05-04T03:42:25.213Z,20.04
2018-05-04T03:44:51.680Z,20.10
2018-05-04T03:47:19.045Z,20.16
2018-05-04T03:49:45.554Z,20.09
2018-05-04T03:52:12.137Z,20.16
2018-05-04T03:54:38.646Z,20.20
2018-05-04T03:57:17.209Z,20.26
2018-05-04T03:59:55.914Z,20.31
2018-05-04T04:02:34.540Z,20.24
2018-05-04T04:05:00.780Z,20.34
2018-05-04T04:07:27.316Z,20.34
2018-05-04T04:09:53.797Z,20.47
2018-05-04T04:12:20.458Z,20.45
2018-05-04T04:14:47.101Z,20.36
2018-05-04T04:17:13.564Z,20.41
2018-05-04T04:19:39.947Z,20.42
2018-05-04T04:22:06.391Z,20.31
2018-05-04T04:24:32.876Z,20.25
2018-05-04T04:26:59.394Z,20.33
2018-05-04T04:29:25.858Z,20.39
2018-05-04T04:31:52.363Z,20.33
2018-05-04T04:34:19.009Z,20.45
2018-05-04T04:36:45.476Z,20.40
2018-05-04T04:39:12.013Z,20.39
2018-05-04T04:41:38.524Z,20.48
2018-05-04T04:44:05.009Z,20.41
2018-05-04T04:46:31.512Z,20.52
2018-05-04T04:48:58.025Z,20.60
2018-05-04T04:51:24.518Z,20.66
2018-05-04T04:53:51.042Z,20.76
2018-05-04T04:56:17.540Z,20.61
2018-05-04T04:58:44.021Z,20.67
2018-05-04T05:01:10.592Z,20.64
2018-05-04T05:03:37.070Z,20.66
2018-05-04T05:06:04.164Z,20.67
2018-05-04T05:08:30.890Z,20.53
2018-05-04T05:10:57.884Z,20.60
2018-05-04T05:13:24.892Z,20.65
2018-05-04T05:15:52.509Z,20.68
2018-05-04T05:18:19.184Z,20.64
2018-05-04T05:20:45.632Z,20.63
2018-05-04T05:23:12.143Z,20.66
2018-05-04T05:25:38.592Z,20.77
2018-05-04T05:28:05.085Z,20.76
2018-05-04T05:30:31.745Z,20.72
2018-05-04T05:32:58.234Z,20.78
2018-05-04T05:35:24.786Z,20.78
2018-05-04T05:37:51.465Z,20.74
2018-05-04T05:40:17.929Z,20.72
2018-05-04T05:42:44.438Z,20.76
2018-05-04T05:45:10.819Z,20.81
2018-05-04T05:47:37.408Z,20.86
2018-05-04T05:50:04.022Z,20.92
2018-05-04T05:52:30.597Z,20.95
2018-05-04T05:54:57.084Z,20.95
2018-05-04T05:57:23.628Z,21.04
2018-05-04T05:59:50.218Z,21.19
2018-05-04T06:02:16.662Z,21.26
2018-05-04T06:04:43.143Z,21.40
2018-05-04T06:07:09.610Z,21.60
2018-05-04T06:09:36.133Z,21.65
2018-05-04T06:12:02.753Z,21.72
2018-05-04T06:14:29.244Z,21.74
2018-05-04T06:16:55.608Z,21.72
2018-05-04T06:19:22.048Z,21.76
2018-05-04T06:21:48.564Z,21.74
2018-05-04T06:24:15.076Z,21.84
2018-05-04T06:26:41.561Z,21.88
2018-05-04T06:29:08.031Z,21.94
2018-05-04T06:31:34.602Z,21.99
2018-05-04T06:34:01.111Z,21.92
2018-05-04T06:36:27.520Z,21.84
2018-05-04T06:38:54.050Z,21.95
2018-05-04T06:41:20.569Z,22.02
2018-05-04T06:43:47.103Z,22.11
2018-05-04T06:46:13.699Z,22.26
2018-05-04T06:48:40.192Z,22.34
2018-05-04T06:51:06.903Z,22.40
2018-05-04T06:53:33.564Z,22.47
2018-05-04T06:56:00.086Z,22.66
2018-05-04T06:58:27.068Z,22.72
2018-05-04T07:00:53.592Z,22.77
2018-05-04T07:03:20.126Z,22.74
2018-05-04T07:05:46.579Z,22.62
2018-05-04T07:08:13.138Z,22.63
2018-05-04T07:10:39.699Z,22.66
2018-05-04T07:13:06.200Z,22.70
2018-05-04T07:15:32.730Z,22.69
2018-05-04T07:17:59.265Z,22.67
2018-05-04T07:20:25.746Z,22.69
2018-05-04T07:22:52.246Z,22.80
2018-05-04T07:25:18.608Z,22.87
2018-05-04T07:27:45.117Z,22.86
2018-05-04T07:30:11.564Z,22.93
2018-05-04T07:32:37.978Z,22.86
2018-05-04T07:35:04.366Z,23.06
2018-05-04T07:37:30.906Z,23.08
2018-05-04T07:39:57.496Z,23.11
2018-05-04T07:42:24.028Z,23.12
2018-05-04T07:44:50.548Z,23.14
2018-05-04T07:47:17.140Z,23.10
2018-05-04T07:49:43.736Z,23.16
2018-05-04T07:52:10.209Z,23.27
2018-05-04T07:54:36.655Z,23.36
2018-05-04T07:57:03.060Z,23.48
2018-05-04T07:59:29.501Z,23.59
2018-05-04T08:01:55.904Z,23.74
2018-05-04T08:04:22.277Z,23.89
2018-05-04T08:06:48.698Z,23.92
2018-05-04T08:09:15.066Z,23.92
2018-05-04T08:11:41.447Z,23.87
2018-05-04T08:14:07.852Z,23.94
2018-05-04T08:16:34.276Z,24.01
2018-05-04T08:19:00.613Z,24.02
2018-05-04T08:21:27.017Z,24.12
2018-05-04T08:23:53.377Z,24.19
2018-05-04T08:26:19.836Z,24.23
2018-05-04T08:35:08.148Z,24.16
2018-05-04T08:37:34.615Z,24.18
2018-05-04T08:40:01.031Z,24.23
2018-05-04T08:42:27.479Z,24.21
2018-05-04T08:44:53.962Z,24.18
2018-05-04T08:47:20.561Z,24.10
2018-05-04T08:49:47.069Z,24.12
2018-05-04T08:52:13.592Z,24.11
2018-05-04T09:00:12.235Z,24.07
2018-05-04T09:02:38.703Z,24.01
2018-05-04T09:05:05.260Z,24.03
2018-05-04T09:07:31.669Z,24.10
2018-05-04T09:09:58.126Z,24.18
2018-05-04T09:12:24.729Z,24.22
2018-05-04T09:14:51.221Z,24.30
2018-05-04T09:17:17.616Z,24.35
2018-05-04T09:19:44.295Z,24.49
2018-05-04T09:22:10.856Z,24.52
2018-05-04T09:24:37.484Z,24.53
2018-05-04T09:27:03.897Z,24.57
2018-05-04T09:29:30.263Z,24.58
2018-05-04T09:31:56.661Z,24.57
2018-05-04T09:34:23.145Z,24.68
2018-05-04T09:36:49.568Z,24.81
2018-05-04T09:39:16.038Z,24.91
2018-05-04T09:41:42.618Z,24.90
2018-05-04T09:44:09.124Z,24.95
2018-05-04T09:46:35.588Z,24.94
2018-05-04T09:49:02.040Z,24.95
2018-05-04T09:51:28.548Z,25.06
2018-05-04T09:53:55.094Z,25.09
2018-05-04T09:56:21.521Z,25.02
2018-05-04T09:58:48.020Z,25.04
2018-05-04T10:01:14.585Z,25.01
2018-05-04T10:03:40.949Z,24.97
2018-05-04T10:06:07.411Z,25.06
2018-05-04T10:08:33.912Z,25.13
2018-05-04T10:11:00.471Z,25.12
2018-05-04T10:13:26.929Z,25.04
2018-05-04T10:15:53.384Z,25.07
2018-05-04T10:18:19.728Z,25.14
2018-05-04T10:20:46.112Z,25.17
2018-05-04T10:23:12.531Z,25.31
2018-05-04T10:25:38.948Z,25.34
2018-05-04T10:28:05.400Z,25.35
2018-05-04T10:30:31.901Z,25.34
2018-05-04T10:32:58.356Z,25.30
2018-05-04T10:35:24.832Z,25.32
2018-05-04T10:37:51.302Z,25.35
2018-05-04T10:40:17.737Z,25.35
2018-05-04T10:42:44.213Z,25.32
2018-05-04T10:45:10.642Z,25.23
2018-05-04T10:47:37.043Z,25.23
2018-05-04T10:50:03.581Z,25.25
2018-05-04T10:52:30.016Z,25.28
2018-05-04T10:54:56.497Z,25.34
2018-05-04T10:57:23.284Z,25.31
2018-05-04T10:59:49.800Z,25.29
2018-05-04T11:02:16.279Z,25.40
2018-05-04T11:04:42.836Z,25.44
2018-05-04T11:07:09.368Z,25.55
2018-05-04T11:09:35.933Z,25.56
2018-05-04T11:12:02.421Z,25.50
2018-05-04T11:14:28.927Z,25.50
2018-05-04T11:16:55.457Z,25.53
2018-05-04T11:19:22.035Z,25.56
2018-05-04T11:21:48.508Z,25.52
2018-05-04T11:24:15.049Z,25.55
2018-05-04T11:29:12.799Z,25.57
2018-05-04T11:31:39.312Z,25.60
2018-05-04T11:34:05.808Z,25.67
2018-05-04T11:36:32.292Z,25.64
2018-05-04T11:38:58.849Z,25.70
2018-05-04T11:41:25.321Z,25.81
2018-05-04T11:43:51.877Z,25.80
2018-05-04T11:46:18.316Z,25.91
2018-05-04T11:48:44.748Z,25.89
2018-05-04T11:51:11.340Z,26.00
2018-05-04T11:53:38.424Z,26.01
2018-05-04T11:56:04.912Z,26.05
2018-05-04T11:58:31.878Z,26.10
2018-05-04T12:00:58.340Z,26.19
2018-05-04T12:03:24.811Z,26.34
2018-05-04T12:05:51.406Z,26.34
2018-05-04T12:08:18.032Z,26.34
2018-05-04T12:10:44.540Z,26.36
2018-05-04T12:13:11.128Z,26.35
2018-05-04T12:15:37.774Z,26.28
2018-05-04T12:18:04.362Z,26.08
2018-05-04T12:20:30.900Z,25.98
2018-05-04T12:22:57.677Z,26.02
2018-05-04T12:25:24.320Z,26.06
2018-05-04T12:27:50.709Z,26.07
2018-05-04T12:30:17.220Z,26.09
2018-05-04T12:32:43.704Z,26.06
2018-05-04T12:35:10.116Z,26.05
2018-05-04T12:37:36.565Z,25.96
2018-05-04T12:40:03.096Z,25.94
2018-05-04T12:42:29.512Z,25.79
2018-05-04T12:44:56.060Z,25.78
2018-05-04T12:47:22.564Z,25.69
2018-05-04T12:49:49.117Z,25.72
2018-05-04T12:52:15.565Z,25.63
2018-05-04T12:54:42.216Z,25.65
2018-05-04T12:57:08.646Z,25.65
2018-05-04T12:59:35.336Z,25.51
2018-05-04T13:02:01.827Z,25.57
2018-05-04T13:04:28.341Z,25.65
2018-05-04T13:06:55.241Z,25.83
2018-05-04T13:09:21.984Z,25.92
2018-05-04T13:11:48.375Z,26.05
2018-05-04T13:14:14.841Z,26.13
2018-05-04T13:16:41.309Z,26.05
2018-05-04T13:19:07.881Z,26.08
2018-05-04T13:21:34.406Z,26.01
2018-05-04T13:24:01.022Z,26.01
2018-05-04T13:26:27.590Z,25.96
2018-05-04T13:28:54.157Z,25.86
2018-05-04T13:31:20.601Z,25.83
2018-05-04T13:33:47.071Z,25.82
2018-05-04T13:36:13.619Z,25.83
2018-05-04T13:38:40.037Z,25.73
2018-05-04T13:41:06.542Z,25.68
2018-05-04T13:43:33.197Z,25.68
2018-05-04T13:45:59.689Z,25.61
2018-05-04T13:48:26.252Z,25.53
2018-05-04T13:50:52.808Z,25.57
2018-05-04T13:53:19.231Z,25.64
2018-05-04T13:55:50.644Z,25.55
2018-05-04T13:58:17.154Z,25.50
2018-05-04T14:00:47.419Z,25.48
2018-05-04T14:03:14.059Z,25.40
2018-05-04T14:05:40.564Z,25.47
2018-05-04T14:08:07.019Z,25.50
2018-05-04T14:10:33.481Z,25.53
2018-05-04T14:13:00.054Z,25.44
2018-05-04T14:15:26.484Z,25.47
2018-05-04T14:17:53.044Z,25.42
2018-05-04T14:20:19.594Z,25.26
2018-05-04T14:22:46.045Z,25.31
2018-05-04T14:25:12.580Z,25.36
2018-05-04T14:27:39.184Z,25.30
2018-05-04T14:30:05.798Z,25.20
2018-05-04T14:32:32.309Z,25.29
2018-05-04T14:34:58.893Z,25.30
2018-05-04T14:37:26.170Z,25.31
2018-05-04T14:39:52.685Z,25.25
2018-05-04T14:42:19.192Z,25.24
2018-05-04T14:44:45.715Z,25.12
2018-05-04T14:47:12.313Z,25.06
2018-05-04T14:49:38.796Z,24.99
2018-05-04T14:52:05.353Z,24.85
2018-05-04T14:54:31.782Z,24.82
2018-05-04T14:56:58.241Z,24.75
2018-05-04T14:59:24.871Z,24.70
2018-05-04T15:01:51.539Z,24.67
2018-05-04T15:04:18.237Z,24.69
2018-05-04T15:06:44.720Z,24.68
2018-05-04T15:09:11.254Z,24.71
2018-05-04T15:11:37.845Z,24.58
2018-05-04T15:14:04.394Z,24.53
2018-05-04T15:16:30.924Z,24.44
2018-05-04T15:18:57.420Z,24.38
2018-05-04T15:21:23.932Z,24.33
2018-05-04T15:23:50.372Z,24.28
2018-05-04T15:26:16.959Z,24.26
2018-05-04T15:28:43.421Z,24.24
2018-05-04T15:31:09.910Z,24.29
2018-05-04T15:33:36.420Z,24.31
2018-05-04T15:36:02.932Z,24.46
2018-05-04T15:38:29.518Z,24.46
2018-05-04T15:40:56.277Z,24.55
2018-05-04T15:43:22.783Z,24.57
2018-05-04T15:45:49.240Z,24.64
2018-05-04T15:48:21.944Z,24.66
2018-05-04T15:50:54.657Z,24.73
2018-05-04T15:53:21.212Z,24.75
2018-05-04T15:55:47.702Z,24.75
2018-05-04T15:58:14.345Z,24.78
2018-05-04T16:00:40.980Z,24.80
2018-05-04T16:03:07.645Z,24.81
2018-05-04T16:05:34.196Z,24.81
2018-05-04T16:08:00.789Z,24.77
2018-05-04T16:10:27.455Z,24.75
2018-05-04T16:12:54.027Z,24.75
2018-05-04T16:15:20.508Z,24.77
2018-05-04T16:17:47.202Z,24.66
2018-05-04T16:20:13.711Z,24.66
2018-05-04T16:22:40.328Z,24.53
2018-05-04T16:25:06.904Z,24.47
2018-05-04T16:27:33.669Z,24.03
2018-05-04T16:30:00.372Z,23.80
2018-05-04T16:32:26.833Z,23.82
2018-05-04T16:34:53.304Z,24.00
2018-05-04T16:37:19.757Z,23.85
2018-05-04T16:39:46.277Z,23.58
2018-05-04T16:42:12.798Z,23.57
2018-05-04T16:44:39.168Z,23.20
2018-05-04T16:47:11.708Z,23.23
2018-05-04T16:49:38.245Z,23.28
2018-05-04T16:52:04.699Z,23.14
2018-05-04T16:54:31.205Z,23.35
2018-05-04T16:56:57.719Z,23.57
2018-05-04T16:59:24.353Z,23.63
2018-05-04T17:01:51.287Z,23.66
2018-05-04T17:04:17.801Z,23.78
2018-05-04T17:06:44.242Z,24.05
2018-05-04T17:09:11.198Z,24.16
2018-05-04T17:11:37.689Z,24.12
2018-05-04T17:14:04.265Z,24.12
2018-05-04T17:16:31.052Z,24.21
2018-05-04T17:18:57.506Z,24.18
2018-05-04T17:21:24.077Z,24.19
2018-05-04T17:23:50.744Z,24.23
2018-05-04T17:26:17.332Z,24.23
2018-05-04T17:28:43.739Z,24.19
2018-05-04T17:31:10.304Z,24.22
2018-05-04T17:33:36.836Z,24.21
2018-05-04T17:36:03.317Z,24.23
2018-05-04T17:38:30.017Z,24.15
2018-05-04T17:40:56.444Z,24.07
2018-05-04T17:43:23.017Z,24.07
2018-05-04T17:45:49.577Z,24.04
2018-05-04T17:48:16.167Z,23.99
2018-05-04T17:50:43.450Z,23.96
2018-05-04T17:53:09.859Z,23.96
2018-05-04T17:55:36.525Z,24.00
2018-05-04T17:58:03.025Z,23.99
2018-05-04T18:00:29.512Z,24.00
2018-05-04T18:02:56.644Z,23.99
2018-05-04T18:05:23.210Z,23.97
2018-05-04T18:07:49.771Z,23.99
2018-05-04T18:10:16.363Z,24.01
2018-05-04T18:12:43.026Z,24.05
2018-05-04T18:15:09.515Z,24.08
2018-05-04T18:17:36.008Z,24.18
2018-05-04T18:20:02.767Z,24.14
2018-05-04T18:22:29.404Z,24.18
2018-05-04T18:24:55.965Z,24.19
2018-05-04T18:27:22.410Z,24.15
2018-05-04T18:29:48.955Z,24.11
2018-05-04T18:32:15.367Z,24.12
2018-05-04T18:34:41.779Z,24.12
2018-05-04T18:37:08.344Z,24.19
2018-05-04T18:39:34.920Z,24.16
2018-05-04T18:42:01.646Z,24.20
2018-05-04T18:44:28.060Z,24.19
2018-05-04T18:46:54.527Z,24.19
2018-05-04T18:49:21.161Z,24.19
2018-05-04T18:51:47.828Z,24.24
2018-05-04T18:54:14.268Z,24.24
2018-05-04T18:56:40.723Z,24.23
2018-05-04T18:59:07.208Z,24.20
2018-05-04T19:01:33.723Z,24.23
2018-05-04T19:04:00.187Z,24.21
2018-05-04T19:06:26.837Z,24.24
2018-05-04T19:08:53.485Z,24.26
2018-05-04T19:11:20.036Z,24.19
2018-05-04T19:13:46.621Z,24.23
2018-05-04T19:16:13.009Z,24.18
2018-05-04T19:18:39.617Z,24.18
2018-05-04T19:21:06.253Z,24.08
2018-05-04T19:23:32.727Z,24.15
2018-05-04T19:25:59.173Z,24.14
2018-05-04T19:28:25.725Z,24.09
2018-05-04T19:30:52.149Z,24.01
2018-05-04T19:33:18.633Z,23.87
2018-05-04T19:35:45.231Z,23.78
2018-05-04T19:38:11.792Z,23.74
2018-05-04T19:40:38.221Z,23.77
2018-05-04T19:43:04.664Z,23.77
2018-05-04T19:45:31.173Z,23.78
2018-05-04T19:47:57.622Z,23.77
2018-05-04T19:50:24.194Z,23.82
2018-05-04T19:52:50.676Z,23.91
2018-05-04T19:55:17.169Z,23.96
2018-05-04T19:57:43.711Z,23.99
2018-05-04T20:00:10.161Z,24.00
2018-05-04T20:02:36.656Z,24.00
2018-05-04T20:05:03.208Z,23.97
2018-05-04T20:07:29.749Z,23.88
2018-05-04T20:09:56.244Z,23.75
2018-05-04T20:12:22.768Z,23.62
2018-05-04T20:14:49.265Z,23.61
2018-05-04T20:17:15.853Z,23.60
2018-05-04T20:19:42.232Z,23.56
2018-05-04T20:22:08.804Z,23.56
2018-05-04T20:24:35.293Z,23.49
2018-05-04T20:27:01.820Z,23.50
2018-05-04T20:29:28.329Z,23.46
2018-05-04T20:31:54.790Z,23.42
2018-05-04T20:34:22.345Z,23.37
2018-05-04T20:36:48.929Z,23.38
2018-05-04T20:39:15.393Z,23.39
2018-05-04T20:41:41.853Z,23.39
2018-05-04T20:44:08.376Z,23.25
2018-05-04T20:46:34.921Z,23.24
2018-05-04T20:49:01.389Z,23.20
2018-05-04T20:51:27.860Z,23.19
2018-05-04T20:53:54.372Z,23.14
2018-05-04T20:56:20.824Z,23.10
2018-05-04T20:58:47.477Z,23.09
2018-05-04T21:01:13.940Z,23.09
2018-05-04T21:03:40.451Z,23.06
2018-05-04T21:06:07.023Z,23.09
2018-05-04T21:08:33.538Z,23.08
2018-05-04T21:11:00.176Z,23.06
2018-05-04T21:13:26.664Z,22.93
2018-05-04T21:15:53.152Z,22.85
2018-05-04T21:18:19.657Z,22.81
2018-05-04T21:20:46.217Z,22.73
2018-05-04T21:23:12.733Z,22.61
2018-05-04T21:25:39.329Z,22.55
2018-05-04T21:28:05.878Z,22.40
2018-05-04T21:30:32.349Z,22.36
2018-05-04T21:32:58.832Z,22.33
2018-05-04T21:35:25.233Z,22.25
2018-05-04T21:37:51.783Z,22.17
2018-05-04T21:40:18.242Z,22.03
2018-05-04T21:42:44.773Z,21.90
2018-05-04T21:45:11.520Z,21.88
2018-05-04T21:47:37.960Z,21.79
2018-05-04T21:50:04.460Z,21.57
2018-05-04T21:52:30.914Z,21.62
2018-05-04T21:54:57.425Z,21.47
2018-05-04T21:57:23.933Z,21.35
2018-05-04T21:59:50.504Z,21.37
2018-05-04T22:02:17.152Z,21.44
2018-05-04T22:04:43.623Z,21.53
2018-05-04T22:07:10.134Z,21.60
2018-05-04T22:09:36.778Z,21.63
2018-05-04T22:12:03.180Z,21.65
2018-05-04T22:14:29.685Z,21.70
2018-05-04T22:16:56.185Z,21.75
2018-05-04T22:19:22.693Z,21.80
2018-05-04T22:21:49.220Z,21.88
2018-05-04T22:24:15.762Z,21.94
2018-05-04T22:26:42.334Z,21.94
2018-05-04T22:29:08.812Z,21.95
2018-05-04T22:31:35.256Z,21.93
2018-05-04T22:34:01.841Z,21.91
2018-05-04T22:36:28.361Z,21.96
2018-05-04T22:38:54.868Z,21.94
2018-05-04T22:41:21.300Z,22.00
2018-05-04T22:43:47.739Z,21.99
2018-05-04T22:46:14.285Z,21.90
2018-05-04T22:48:40.854Z,21.93
2018-05-04T22:51:07.414Z,21.90
2018-05-04T22:53:34.132Z,21.91
2018-05-04T22:56:00.600Z,21.84
2018-05-04T22:58:27.071Z,21.86
2018-05-04T23:00:53.616Z,21.84
2018-05-04T23:03:20.054Z,21.78
2018-05-04T23:05:46.667Z,21.77
2018-05-04T23:08:13.108Z,21.77
2018-05-04T23:10:39.872Z,21.80
2018-05-04T23:13:06.354Z,21.75
2018-05-04T23:15:32.865Z,21.66
2018-05-04T23:17:59.340Z,21.61
2018-05-04T23:20:25.887Z,21.61
2018-05-04T23:22:52.305Z,21.57
2018-05-04T23:25:18.821Z,21.53
2018-05-04T23:27:45.323Z,21.58
2018-05-04T23:30:11.737Z,21.58
2018-05-04T23:32:38.309Z,21.53
2018-05-04T23:35:04.788Z,21.51
2018-05-04T23:37:31.409Z,21.50
2018-05-04T23:39:57.904Z,21.45
2018-05-04T23:42:24.457Z,21.41
2018-05-04T23:44:51.117Z,21.38
2018-05-04T23:47:17.700Z,21.35
2018-05-04T23:49:44.142Z,21.29
2018-05-04T23:52:10.602Z,21.29
2018-05-04T23:54:37.156Z,21.21
2018-05-04T23:57:03.617Z,21.22
2018-05-04T23:59:30.177Z,21.27
